Memanbetsu Airport
RJCM : now visible

Airfield :











YOU CAN JOIN US ON...

 
LOGIN :

Register | Disclaimer

   EN    FR    IT 

 









Legend :    VFR   Marginal VFR   IFR   Intensive IFR   Very Intensive IFR
Visi :
Ceiling :
>= 8 km
>= 3000ft
5 to 8 km
1000 to 3000 ft
1500m to 5 km
500 to 1000 ft
800 to 1500m
200 to 500 ft
< 800m
< 200 ft
Symbols :   Thunderstorms  Fog  Heavy snow  Heavy precipitations  Wind > 20 kt






- Airport Elevation : 135 ft
- IATA code : MMB


RJCM - Memanbetsu

CURRENT METAR :
  • 190700Z 36009KT 9999 FEW005 SCT080 BKN/// 17/11 Q1007

EXPIRED METARs :
  • 190600Z 36011KT 9999 FEW015 BKN/// 16/12 Q1007
  • 190500Z 01009KT 9999 FEW020 BKN/// 18/14 Q1007
  • 190400Z 36013KT 9999 FEW015 18/13 Q1007
  • 190300Z 36007KT 320V030 9999 FEW015 SCT020 19/15 Q1007

TAF TAF RJCM
Valid from the 19 at 06:00 until the 20 at 12:00 UTC


190506Z 1906/2012 04006KT 9999 FEW030
BECMG 1911/1913 19006KT
TEMPO 1916/1921 2000 BR
RJJJ FIR / Asia



MET'MAP, your aeronautical weather chart ! - Copyright ORBIFLY December 2007 - Disclaimer

ORBIFLY MET'MAP TEAM :

Programming & Development : Alexandra Zaïnal
Original concept : Baudouin d'Aumeries
Technical & hardware support : Manuel Goepfert
Assistance : Marc-Olivier Méhu




SOURCES & CREDITS :

   NOAA       Earth
Advisory